메인 페이지
METAR-TAF:

METAR-TAF

공항 :

리스본 포르텔라 국제공항

리스본, 포르투갈

위도: 38-46N, 경도: 009-08W, 고도: 114m

현재 날씨관측

예보는 39분 전, 15:30시(UTC)에 발표되었습니다.
북서8kt풍과 북북서풍을 오가는
온도 14°C
습도 94%
기압 1019 hPa
시정: 6000m
고도 400ft 상공 구름 조금
고도 800ft 상공 구름 많음
약한비, 이슬비

METAR: LPPT 181530Z 31008KT 280V340 6000 -RADZ FEW004 BKN008 14/13 Q1019 RERA

시각: 16:09 (16:09 UTC)

예보

예보는 5 시간 9분 전, 11:00시(UTC)에 발표되었습니다.
예보 대상 시간: 18일 12시부터 19일 18시까지 (UTC)
남남서15kt
시정: 5000m
고도 600ft 상공 구름 보통
고도 1200ft 상공 구름 많음
약한비
일시적
18일 12시부터 18일 16시까지 (UTC)
남남서18kt, 순간 최대 풍속 30kt
시정: 3000m
고도 200ft 상공 구름 보통
고도 500ft 상공 구름 많음
비, 이슬비, 박무
전환 중
18일 16시부터 18일 18시까지 (UTC)
북서10kt
시정 10km 이상
고도 3000ft 상공 구름 많음
전환 중
18일 18시부터 18일 21시까지 (UTC)
여러 방향의 바람 3kt
고도 2000ft 상공 구름 보통
전환 중
19일 10시부터 19일 12시까지 (UTC)
7kt

TAF: LPPT 181100Z 1812/1918 20015KT 5000 -RA SCT006 BKN012 TEMPO 1812/1816 20018G30KT 3000 RADZ BR SCT002 BKN005 BECMG 1816/1818 32010KT 9999 NSW BKN030 BECMG 1818/1821 VRB03KT SCT020 BECMG 1910/1912 28007KT

4,000개 이상의 공항 관측 자료 및 예보 (METAR 및 TAF 보고).

지도상에서 검색 가능한 기상관측소가 노란 점과 빨간 점으로 표시되어 있습니다.

기상관측소 명을 보려면 표시 위로 마우스를 이동하세요.

날씨 관측과 예보를 보려면 클릭하세요.

지도 변경 : 확대하려면 엑스 표시가 있는 녹색 버튼, 축소하려면 빼기 표시가 있는 녹색 버튼, 다음 페이지의 지도를 보려면 녹색 화살표를 클릭하세요.


METAR-TAF: